Time;durP1;ratioP1;P1;durP2;ratioP2;P2;SDS_P1;SDS_P2;PMS_P1;PMS_P2;Temp;Humidity;BMP_temperature;BMP_pressure;BME280_temperature;BME280_humidity;BME280_pressure;Samples;Min_cycle;Max_cycle;Signal;HPM_P1;HPM_P2
2022/11/22 00:00:19;;;;;;;31.23;15.53;;;;;;;;;;5028433;28;20760;-69
2022/11/22 00:02:44;;;;;;;28.90;14.97;;;;;;;;;;5020988;28;20504;-68
2022/11/22 00:05:10;;;;;;;26.37;15.20;;;;;;;;;;5031482;28;20189;-69
2022/11/22 00:07:36;;;;;;;30.70;15.50;;;;;;;;;;5030628;28;20265;-69
2022/11/22 00:10:03;;;;;;;25.33;14.33;;;;;;;;;;5023429;28;20270;-69
2022/11/22 00:12:28;;;;;;;27.80;15.57;;;;;;;;;;5027309;28;20305;-69
2022/11/22 00:14:54;;;;;;;26.43;15.40;;;;;;;;;;5025717;28;20274;-69
2022/11/22 00:17:19;;;;;;;30.73;15.37;;;;;;;;;;5023937;28;20186;-69
2022/11/22 00:19:44;;;;;;;30.57;14.90;;;;;;;;;;5015485;28;20192;-69
2022/11/22 00:22:09;;;;;;;24.13;14.33;;;;;;;;;;5021044;28;20190;-69
2022/11/22 00:24:35;;;;;;;27.33;15.10;;;;;;;;;;5030301;28;20202;-69
2022/11/22 00:27:00;;;;;;;29.47;14.83;;;;;;;;;;5030289;28;20603;-69
2022/11/22 00:29:25;;;;;;;22.50;13.37;;;;;;;;;;5027701;28;20645;-69
2022/11/22 00:31:51;;;;;;;28.27;14.67;;;;;;;;;;5021558;28;20222;-69
2022/11/22 00:34:16;;;;;;;25.53;14.57;;;;;;;;;;5029726;28;20189;-69
2022/11/22 00:36:41;;;;;;;29.23;15.40;;;;;;;;;;5029878;28;20229;-69
2022/11/22 00:39:07;;;;;;;28.70;14.93;;;;;;;;;;5030401;28;20537;-69
2022/11/22 00:41:32;;;;;;;25.23;14.50;;;;;;;;;;5024949;28;20195;-69
2022/11/22 00:43:57;;;;;;;30.67;15.10;;;;;;;;;;5023675;28;20186;-69
2022/11/22 00:46:23;;;;;;;27.83;14.63;;;;;;;;;;5011912;28;20649;-69
2022/11/22 00:48:48;;;;;;;28.43;14.37;;;;;;;;;;5009339;28;20765;-69
2022/11/22 00:51:13;;;;;;;27.80;15.27;;;;;;;;;;5011628;28;20721;-69
2022/11/22 00:53:39;;;;;;;31.73;14.43;;;;;;;;;;5014011;28;20466;-68
2022/11/22 00:56:04;;;;;;;28.13;14.73;;;;;;;;;;5014030;28;20675;-68
2022/11/22 00:58:29;;;;;;;26.20;15.20;;;;;;;;;;5017189;28;20187;-68
2022/11/22 01:00:55;;;;;;;27.33;15.10;;;;;;;;;;5023468;28;20184;-68
2022/11/22 01:03:20;;;;;;;26.50;14.23;;;;;;;;;;5025273;28;20436;-68
2022/11/22 01:05:45;;;;;;;28.90;15.30;;;;;;;;;;5030707;28;20193;-69
2022/11/22 01:08:11;;;;;;;25.73;14.50;;;;;;;;;;5027138;28;20194;-69
2022/11/22 01:10:37;;;;;;;25.67;14.23;;;;;;;;;;5013098;28;20216;-69
2022/11/22 01:13:03;;;;;;;27.47;15.63;;;;;;;;;;5020186;28;20193;-68
2022/11/22 01:15:28;;;;;;;27.10;14.73;;;;;;;;;;5008174;28;20635;-69
2022/11/22 01:17:54;;;;;;;25.70;14.63;;;;;;;;;;5024102;28;20193;-69
2022/11/22 01:20:19;;;;;;;29.67;13.73;;;;;;;;;;5018772;28;20265;-69
2022/11/22 01:22:45;;;;;;;23.37;13.57;;;;;;;;;;5027207;28;20237;-69
2022/11/22 01:25:10;;;;;;;28.93;14.00;;;;;;;;;;5009979;28;20206;-69
2022/11/22 01:27:36;;;;;;;30.63;14.43;;;;;;;;;;5020496;28;20190;-69
2022/11/22 01:30:01;;;;;;;24.50;13.90;;;;;;;;;;5015026;28;20178;-69
2022/11/22 01:32:27;;;;;;;27.63;13.60;;;;;;;;;;5038442;28;20228;-69
2022/11/22 01:34:52;;;;;;;30.70;15.07;;;;;;;;;;5022389;28;20182;-69
2022/11/22 01:37:17;;;;;;;24.83;13.40;;;;;;;;;;5022731;28;20713;-69
2022/11/22 01:39:43;;;;;;;25.03;14.03;;;;;;;;;;5029743;28;20182;-69
2022/11/22 01:42:10;;;;;;;24.07;13.73;;;;;;;;;;5014267;28;20454;-69
2022/11/22 01:44:38;;;;;;;22.13;13.27;;;;;;;;;;5021208;28;20560;-70
2022/11/22 01:47:12;;;;;;;22.83;13.57;;;;;;;;;;5012639;28;20929;-70
2022/11/22 01:49:45;;;;;;;26.07;12.83;;;;;;;;;;5019385;28;20190;-70
2022/11/22 01:52:18;;;;;;;25.10;13.00;;;;;;;;;;5023739;28;20202;-71
2022/11/22 01:54:49;;;;;;;28.30;14.00;;;;;;;;;;5021259;28;20189;-70
2022/11/22 01:57:22;;;;;;;26.77;13.43;;;;;;;;;;5015087;28;20174;-70
2022/11/22 01:59:58;;;;;;;26.03;13.63;;;;;;;;;;5009264;28;20252;-70
2022/11/22 02:02:24;;;;;;;29.73;14.37;;;;;;;;;;5014794;28;20205;-70
2022/11/22 02:04:51;;;;;;;28.30;14.17;;;;;;;;;;5019527;28;20182;-70
2022/11/22 02:07:24;;;;;;;25.77;13.53;;;;;;;;;;5025331;28;20227;-70
2022/11/22 02:09:51;;;;;;;25.53;12.60;;;;;;;;;;5008883;28;20178;-70
2022/11/22 02:12:19;;;;;;;25.93;13.00;;;;;;;;;;5021863;28;20210;-70
2022/11/22 02:14:44;;;;;;;25.33;13.17;;;;;;;;;;5022270;28;20187;-70
2022/11/22 02:17:09;;;;;;;22.17;12.23;;;;;;;;;;5019964;28;20174;-70
2022/11/22 02:19:42;;;;;;;25.57;13.50;;;;;;;;;;5018557;28;20201;-70
2022/11/22 02:22:20;;;;;;;24.43;12.70;;;;;;;;;;5019032;28;20228;-70
2022/11/22 02:24:57;;;;;;;24.63;12.33;;;;;;;;;;5026510;28;20327;-70
2022/11/22 02:27:23;;;;;;;25.97;11.90;;;;;;;;;;5023803;28;20178;-69
2022/11/22 02:29:48;;;;;;;24.30;11.70;;;;;;;;;;5028466;28;20711;-69
2022/11/22 02:32:14;;;;;;;25.50;12.17;;;;;;;;;;5027457;28;20210;-69
2022/11/22 02:34:44;;;;;;;23.13;12.27;;;;;;;;;;5023133;28;20648;-69
2022/11/22 02:37:12;;;;;;;23.30;11.73;;;;;;;;;;5029015;28;20230;-69
2022/11/22 02:39:42;;;;;;;22.37;11.43;;;;;;;;;;5028398;28;20525;-69
2022/11/22 02:42:07;;;;;;;20.83;10.90;;;;;;;;;;5025774;28;20175;-69
2022/11/22 02:44:33;;;;;;;20.17;11.90;;;;;;;;;;5015133;28;20187;-68
2022/11/22 02:46:58;;;;;;;20.83;10.50;;;;;;;;;;5009427;28;20217;-69
2022/11/22 02:49:24;;;;;;;19.07;10.57;;;;;;;;;;5027911;28;20248;-68
2022/11/22 02:51:50;;;;;;;21.67;10.80;;;;;;;;;;5013548;28;20190;-68
2022/11/22 02:54:16;;;;;;;22.83;10.60;;;;;;;;;;5017347;28;20191;-69
2022/11/22 02:56:42;;;;;;;22.30;10.43;;;;;;;;;;5021847;28;20320;-69
2022/11/22 02:59:07;;;;;;;23.83;10.83;;;;;;;;;;5009382;28;20186;-68
2022/11/22 03:01:33;;;;;;;22.70;11.13;;;;;;;;;;5021544;28;20174;-68
2022/11/22 03:03:59;;;;;;;21.83;10.63;;;;;;;;;;5021029;28;20257;-69
2022/11/22 03:06:24;;;;;;;21.80;10.57;;;;;;;;;;5019983;28;20205;-68
2022/11/22 03:08:49;;;;;;;20.27;10.70;;;;;;;;;;5024311;28;20315;-68
2022/11/22 03:11:15;;;;;;;21.57;10.20;;;;;;;;;;5022018;28;20298;-68
2022/11/22 03:13:40;;;;;;;21.67;10.47;;;;;;;;;;5016569;28;20499;-68
2022/11/22 03:16:06;;;;;;;19.30;10.23;;;;;;;;;;5026422;28;20641;-68
2022/11/22 03:18:35;;;;;;;21.13;10.37;;;;;;;;;;5019933;28;20673;-69
2022/11/22 03:21:07;;;;;;;18.63;9.47;;;;;;;;;;5011179;28;20190;-69
2022/11/22 03:23:33;;;;;;;22.53;9.83;;;;;;;;;;5023079;28;20530;-69
2022/11/22 03:25:59;;;;;;;18.20;9.50;;;;;;;;;;5012571;28;20194;-69
2022/11/22 03:28:25;;;;;;;23.77;10.20;;;;;;;;;;5028854;28;20179;-69
2022/11/22 03:30:50;;;;;;;21.83;10.10;;;;;;;;;;5010374;28;20669;-69
2022/11/22 03:33:16;;;;;;;20.50;9.67;;;;;;;;;;5026305;28;20257;-69
2022/11/22 03:35:41;;;;;;;18.77;10.30;;;;;;;;;;5025960;28;20307;-69
2022/11/22 03:38:06;;;;;;;18.80;10.00;;;;;;;;;;5023100;28;20213;-68
2022/11/22 03:40:32;;;;;;;22.47;9.57;;;;;;;;;;5026230;28;20174;-68
2022/11/22 03:43:01;;;;;;;17.47;9.77;;;;;;;;;;5020298;28;20668;-68
2022/11/22 03:45:28;;;;;;;22.40;10.37;;;;;;;;;;5027487;28;20248;-68
2022/11/22 03:47:55;;;;;;;24.17;12.27;;;;;;;;;;5027276;28;20340;-69
2022/11/22 03:50:21;;;;;;;20.97;10.43;;;;;;;;;;5013852;28;21058;-68
2022/11/22 03:52:47;;;;;;;29.63;10.67;;;;;;;;;;5026743;28;20290;-68
2022/11/22 03:55:12;;;;;;;23.17;11.07;;;;;;;;;;5015134;28;20646;-68
2022/11/22 03:57:37;;;;;;;23.27;10.50;;;;;;;;;;5009132;28;20838;-69
2022/11/22 04:00:04;;;;;;;23.17;10.60;;;;;;;;;;5018647;28;20237;-68
2022/11/22 04:02:30;;;;;;;24.93;11.87;;;;;;;;;;5017403;28;21012;-68
2022/11/22 04:04:55;;;;;;;29.43;12.17;;;;;;;;;;5025954;28;20186;-66
2022/11/22 04:07:22;;;;;;;21.97;11.40;;;;;;;;;;5026690;28;20186;-68
2022/11/22 04:09:47;;;;;;;24.50;10.50;;;;;;;;;;5025362;28;20269;-68
2022/11/22 04:12:12;;;;;;;28.20;12.67;;;;;;;;;;5029821;28;20289;-68
2022/11/22 04:17:39;;;;;;;30.30;11.33;;;;;;;;;;5022393;28;20196;-68
2022/11/22 04:22:56;;;;;;;23.40;12.30;;;;;;;;;;5027968;28;20193;-68
2022/11/22 04:25:23;;;;;;;25.23;11.23;;;;;;;;;;5019273;28;20190;-68
2022/11/22 04:27:48;;;;;;;28.37;12.53;;;;;;;;;;5027289;28;20245;-69
2022/11/22 04:30:13;;;;;;;27.43;11.77;;;;;;;;;;5012725;28;20634;-69
2022/11/22 04:32:44;;;;;;;27.13;12.10;;;;;;;;;;5021585;28;20210;-68
2022/11/22 04:35:11;;;;;;;26.43;12.03;;;;;;;;;;5030482;28;20244;-68
2022/11/22 04:37:37;;;;;;;25.63;11.93;;;;;;;;;;5029667;28;20238;-66
2022/11/22 04:40:03;;;;;;;29.83;11.83;;;;;;;;;;5028926;28;20212;-69
2022/11/22 04:45:12;;;;;;;31.70;13.10;;;;;;;;;;5024473;28;20281;-68
2022/11/22 04:53:05;;;;;;;30.53;12.10;;;;;;;;;;5025559;28;20309;-69
2022/11/22 04:55:30;;;;;;;23.80;11.67;;;;;;;;;;5025050;28;20194;-69
2022/11/22 04:57:56;;;;;;;26.77;12.07;;;;;;;;;;5019764;28;20185;-67
2022/11/22 05:00:21;;;;;;;26.53;12.80;;;;;;;;;;5021338;28;20194;-69
2022/11/22 05:02:46;;;;;;;29.87;12.27;;;;;;;;;;5027544;28;20201;-68
2022/11/22 05:05:12;;;;;;;24.70;11.63;;;;;;;;;;5021389;28;20734;-68
2022/11/22 05:07:37;;;;;;;27.00;11.67;;;;;;;;;;5015521;28;20189;-68
2022/11/22 05:10:03;;;;;;;28.63;12.03;;;;;;;;;;5018619;28;20576;-68
2022/11/22 05:12:28;;;;;;;29.13;11.77;;;;;;;;;;5022520;28;20259;-68
2022/11/22 05:14:54;;;;;;;29.80;11.73;;;;;;;;;;5023056;28;20282;-68
2022/11/22 05:17:19;;;;;;;28.13;11.23;;;;;;;;;;5022592;28;20183;-67
2022/11/22 05:19:44;;;;;;;27.67;11.13;;;;;;;;;;5022695;28;20193;-67
2022/11/22 05:22:10;;;;;;;36.17;12.30;;;;;;;;;;5024381;28;20193;-67
2022/11/22 05:24:35;;;;;;;29.90;11.57;;;;;;;;;;5021596;28;20614;-67
2022/11/22 05:27:00;;;;;;;30.17;12.00;;;;;;;;;;5021918;28;20263;-67
2022/11/22 05:29:26;;;;;;;31.37;11.67;;;;;;;;;;5018784;28;20217;-67
2022/11/22 05:31:51;;;;;;;27.40;10.30;;;;;;;;;;5017838;28;20202;-67
2022/11/22 05:34:16;;;;;;;24.20;10.53;;;;;;;;;;5028302;28;20732;-67
2022/11/22 05:36:42;;;;;;;22.97;10.43;;;;;;;;;;5011721;28;20313;-68
2022/11/22 05:39:07;;;;;;;26.57;9.60;;;;;;;;;;5017623;28;20184;-68
2022/11/22 05:41:32;;;;;;;22.83;9.53;;;;;;;;;;5016048;28;20532;-67
2022/11/22 05:43:58;;;;;;;22.30;8.57;;;;;;;;;;5017842;28;20190;-67
2022/11/22 05:46:26;;;;;;;26.60;9.03;;;;;;;;;;5021500;28;20552;-68
2022/11/22 05:48:53;;;;;;;26.57;8.43;;;;;;;;;;5014583;28;20543;-68
2022/11/22 05:51:20;;;;;;;26.00;7.50;;;;;;;;;;5025870;28;20198;-68
2022/11/22 05:53:46;;;;;;;22.30;8.10;;;;;;;;;;5024247;28;20251;-68
2022/11/22 05:56:20;;;;;;;23.57;8.80;;;;;;;;;;5011615;28;20189;-67
2022/11/22 05:58:46;;;;;;;28.23;7.67;;;;;;;;;;5017972;28;20611;-67
2022/11/22 06:01:17;;;;;;;22.37;7.20;;;;;;;;;;5017515;28;20233;-68
2022/11/22 06:03:43;;;;;;;24.07;7.13;;;;;;;;;;5022498;28;20191;-68
2022/11/22 06:06:09;;;;;;;20.43;6.53;;;;;;;;;;5019149;28;20679;-68
2022/11/22 06:08:37;;;;;;;22.47;6.20;;;;;;;;;;5015482;28;20181;-67
2022/11/22 06:11:13;;;;;;;24.80;6.20;;;;;;;;;;5019546;28;20300;-68
2022/11/22 06:13:40;;;;;;;22.90;7.63;;;;;;;;;;5022034;28;20482;-68
2022/11/22 06:16:07;;;;;;;25.53;6.10;;;;;;;;;;5017798;28;20189;-68
2022/11/22 06:18:33;;;;;;;26.37;5.23;;;;;;;;;;5016604;28;20194;-68
2022/11/22 06:21:03;;;;;;;28.00;6.00;;;;;;;;;;5022618;28;20190;-68
2022/11/22 06:23:29;;;;;;;17.63;5.00;;;;;;;;;;5020851;28;20205;-68
2022/11/22 06:25:58;;;;;;;25.53;5.23;;;;;;;;;;5008618;28;20187;-68
2022/11/22 06:28:25;;;;;;;28.97;5.00;;;;;;;;;;5024477;28;20209;-68
2022/11/22 06:30:50;;;;;;;25.03;4.90;;;;;;;;;;5024072;28;20179;-68
2022/11/22 06:33:15;;;;;;;22.33;5.13;;;;;;;;;;5022166;28;20732;-68
2022/11/22 06:35:41;;;;;;;25.37;4.77;;;;;;;;;;5023383;28;20515;-68
2022/11/22 06:38:06;;;;;;;24.40;5.03;;;;;;;;;;5024143;28;20182;-68
2022/11/22 06:40:31;;;;;;;19.47;4.93;;;;;;;;;;5016823;28;20183;-68
2022/11/22 06:42:56;;;;;;;25.00;4.07;;;;;;;;;;5023909;28;20666;-68
2022/11/22 06:45:22;;;;;;;27.53;5.00;;;;;;;;;;5019544;28;20186;-67
2022/11/22 06:47:47;;;;;;;23.33;4.40;;;;;;;;;;5016402;28;20204;-68
2022/11/22 06:50:12;;;;;;;26.27;4.70;;;;;;;;;;5018067;28;20196;-68
2022/11/22 06:52:38;;;;;;;21.93;5.40;;;;;;;;;;5033426;28;20614;-68
2022/11/22 06:55:03;;;;;;;20.63;5.13;;;;;;;;;;5021801;28;20211;-67
2022/11/22 06:57:29;;;;;;;20.77;5.10;;;;;;;;;;5025918;28;20188;-67
2022/11/22 06:59:54;;;;;;;23.30;5.77;;;;;;;;;;5021317;28;20178;-67
2022/11/22 07:02:19;;;;;;;17.67;4.33;;;;;;;;;;5026388;28;20390;-67
2022/11/22 07:04:45;;;;;;;23.40;4.10;;;;;;;;;;5018431;28;20198;-67
2022/11/22 07:07:10;;;;;;;22.20;4.10;;;;;;;;;;5021969;28;20196;-68
2022/11/22 07:09:37;;;;;;;22.33;4.20;;;;;;;;;;5018119;28;20194;-67
2022/11/22 07:12:03;;;;;;;18.67;3.70;;;;;;;;;;5009961;28;20214;-67
2022/11/22 07:14:29;;;;;;;17.67;3.77;;;;;;;;;;5015524;28;20273;-68
2022/11/22 07:16:55;;;;;;;21.60;3.70;;;;;;;;;;5022097;28;20835;-67
2022/11/22 07:19:20;;;;;;;31.33;4.40;;;;;;;;;;5020588;28;20218;-68
2022/11/22 07:21:45;;;;;;;19.47;4.50;;;;;;;;;;5008924;28;20491;-68
2022/11/22 07:24:11;;;;;;;24.73;4.23;;;;;;;;;;5013073;28;20178;-68
2022/11/22 07:26:36;;;;;;;17.07;3.83;;;;;;;;;;5018898;28;20186;-68
2022/11/22 07:29:02;;;;;;;21.93;3.70;;;;;;;;;;5023203;28;20441;-68
2022/11/22 07:31:27;;;;;;;17.03;3.87;;;;;;;;;;5018514;28;20289;-68
2022/11/22 07:33:55;;;;;;;18.93;3.40;;;;;;;;;;5013382;28;20170;-68
2022/11/22 07:36:21;;;;;;;18.73;3.30;;;;;;;;;;5018810;28;20575;-68
2022/11/22 07:38:47;;;;;;;15.13;3.23;;;;;;;;;;5012252;28;20610;-68
2022/11/22 07:41:14;;;;;;;28.13;3.30;;;;;;;;;;5019310;28;20590;-68
2022/11/22 07:43:39;;;;;;;26.63;3.93;;;;;;;;;;5023707;28;20197;-68
2022/11/22 07:46:10;;;;;;;21.67;4.13;;;;;;;;;;5024791;28;20174;-68
2022/11/22 07:48:35;;;;;;;21.30;4.10;;;;;;;;;;5019626;28;20773;-68
2022/11/22 07:51:07;;;;;;;20.63;4.63;;;;;;;;;;5017917;28;20187;-69
2022/11/22 07:53:33;;;;;;;19.03;4.07;;;;;;;;;;5011870;28;20190;-68
2022/11/22 07:56:05;;;;;;;15.90;4.23;;;;;;;;;;5016544;28;20219;-68
2022/11/22 07:58:31;;;;;;;27.13;4.57;;;;;;;;;;5013713;28;20741;-68
2022/11/22 08:00:57;;;;;;;20.03;4.20;;;;;;;;;;5025703;28;20273;-68
2022/11/22 08:03:22;;;;;;;22.30;5.10;;;;;;;;;;5018220;28;20240;-68
2022/11/22 08:05:48;;;;;;;24.70;4.07;;;;;;;;;;5029740;28;20202;-68
2022/11/22 08:08:13;;;;;;;20.67;3.87;;;;;;;;;;5019173;28;20465;-68
2022/11/22 08:10:38;;;;;;;22.67;4.57;;;;;;;;;;5013870;28;20179;-68
2022/11/22 08:13:04;;;;;;;19.97;3.77;;;;;;;;;;5025521;28;20212;-68
2022/11/22 08:15:30;;;;;;;21.13;4.03;;;;;;;;;;5026615;28;20397;-68
2022/11/22 08:17:56;;;;;;;26.67;4.10;;;;;;;;;;5020583;28;20662;-68
2022/11/22 08:20:21;;;;;;;33.40;4.60;;;;;;;;;;5018809;28;20197;-69
2022/11/22 08:22:46;;;;;;;20.97;3.83;;;;;;;;;;5012526;28;20174;-68
2022/11/22 08:25:12;;;;;;;23.73;3.70;;;;;;;;;;5021517;28;20186;-70
2022/11/22 08:27:39;;;;;;;19.87;3.93;;;;;;;;;;5012406;28;20501;-68
2022/11/22 08:30:04;;;;;;;25.53;4.07;;;;;;;;;;5028211;28;20182;-68
2022/11/22 08:32:30;;;;;;;23.27;4.00;;;;;;;;;;5028674;28;20216;-68
2022/11/22 08:34:55;;;;;;;23.60;4.03;;;;;;;;;;5015037;28;20187;-67
2022/11/22 08:37:20;;;;;;;20.00;3.53;;;;;;;;;;5019748;28;20384;-67
2022/11/22 08:39:46;;;;;;;21.77;3.57;;;;;;;;;;5017511;28;20189;-67
2022/11/22 08:42:11;;;;;;;22.13;4.83;;;;;;;;;;5014437;28;20241;-67
2022/11/22 08:44:36;;;;;;;25.23;3.73;;;;;;;;;;5023766;28;20612;-68
2022/11/22 08:47:02;;;;;;;21.57;3.50;;;;;;;;;;5016503;28;20708;-67
2022/11/22 08:49:27;;;;;;;18.67;3.20;;;;;;;;;;5019415;28;20603;-67
2022/11/22 08:51:52;;;;;;;19.50;3.30;;;;;;;;;;5021570;28;20191;-67
2022/11/22 08:54:18;;;;;;;27.90;4.57;;;;;;;;;;5016811;28;20179;-68
2022/11/22 08:56:43;;;;;;;20.90;3.07;;;;;;;;;;5022451;28;20186;-69
2022/11/22 08:59:08;;;;;;;22.90;3.30;;;;;;;;;;5017897;28;20210;-69
2022/11/22 09:01:34;;;;;;;16.53;2.90;;;;;;;;;;5017024;28;20182;-68
2022/11/22 09:03:59;;;;;;;24.60;3.30;;;;;;;;;;5027827;28;20204;-68
2022/11/22 09:06:24;;;;;;;15.97;3.27;;;;;;;;;;5024215;28;20260;-68
2022/11/22 09:08:50;;;;;;;13.87;3.03;;;;;;;;;;5013177;28;20179;-69
2022/11/22 09:11:18;;;;;;;17.73;2.97;;;;;;;;;;5019020;28;20206;-68
2022/11/22 09:13:44;;;;;;;18.17;2.73;;;;;;;;;;5027537;28;20212;-68
2022/11/22 09:16:12;;;;;;;14.73;2.77;;;;;;;;;;5021046;28;20174;-68
2022/11/22 09:18:38;;;;;;;15.40;2.83;;;;;;;;;;5017581;28;20197;-68
2022/11/22 09:21:06;;;;;;;19.03;2.80;;;;;;;;;;5019925;28;20273;-68
2022/11/22 09:23:32;;;;;;;20.60;2.87;;;;;;;;;;5021252;28;20658;-68
2022/11/22 09:26:00;;;;;;;16.73;3.07;;;;;;;;;;5015935;28;20193;-69
2022/11/22 09:28:26;;;;;;;17.60;3.23;;;;;;;;;;5015595;28;20193;-68
2022/11/22 09:30:59;;;;;;;15.00;2.47;;;;;;;;;;5028533;28;20772;-68
2022/11/22 09:33:24;;;;;;;12.07;2.53;;;;;;;;;;5014941;28;20545;-68
2022/11/22 09:35:50;;;;;;;11.93;2.57;;;;;;;;;;5019576;28;20242;-68
2022/11/22 09:38:15;;;;;;;15.47;2.50;;;;;;;;;;5020773;28;20262;-68
2022/11/22 09:40:45;;;;;;;12.37;2.27;;;;;;;;;;5019512;28;20203;-68
2022/11/22 09:43:20;;;;;;;9.17;2.23;;;;;;;;;;5011241;28;20266;-69
2022/11/22 09:45:51;;;;;;;7.40;1.70;;;;;;;;;;5020874;28;20182;-68
2022/11/22 09:48:35;;;;;;;14.43;2.00;;;;;;;;;;5017069;28;20197;-68
2022/11/22 09:51:24;;;;;;;15.20;2.37;;;;;;;;;;5021842;28;20718;-68
2022/11/22 09:54:07;;;;;;;9.53;2.00;;;;;;;;;;5025148;28;20307;-68
2022/11/22 09:56:33;;;;;;;12.87;2.27;;;;;;;;;;5018959;28;20685;-68
2022/11/22 09:59:08;;;;;;;11.77;2.13;;;;;;;;;;5017682;28;20542;-69
2022/11/22 10:01:39;;;;;;;11.90;2.00;;;;;;;;;;5017206;28;20225;-68
2022/11/22 10:04:22;;;;;;;15.43;2.30;;;;;;;;;;5021165;28;20179;-68
2022/11/22 10:06:57;;;;;;;12.27;2.33;;;;;;;;;;5016563;28;20651;-68
2022/11/22 10:09:35;;;;;;;11.80;2.40;;;;;;;;;;5009008;28;20186;-68
2022/11/22 10:12:26;;;;;;;15.57;2.33;;;;;;;;;;5021574;28;20310;-68
2022/11/22 10:15:12;;;;;;;14.53;2.10;;;;;;;;;;5013910;28;20182;-68
2022/11/22 10:17:43;;;;;;;10.03;1.87;;;;;;;;;;5024823;28;20290;-68
2022/11/22 10:20:13;;;;;;;18.40;2.70;;;;;;;;;;5018995;28;20201;-67
2022/11/22 10:22:39;;;;;;;15.03;2.23;;;;;;;;;;5017411;28;20175;-67
2022/11/22 10:25:15;;;;;;;16.43;2.40;;;;;;;;;;5015151;28;20713;-67
2022/11/22 10:27:41;;;;;;;8.53;1.73;;;;;;;;;;5011405;28;20182;-68
2022/11/22 10:30:17;;;;;;;9.47;1.60;;;;;;;;;;5029658;28;20205;-67
2022/11/22 10:33:04;;;;;;;11.13;2.40;;;;;;;;;;5021335;28;20205;-68
2022/11/22 10:35:43;;;;;;;10.83;2.20;;;;;;;;;;5020109;28;20269;-68
2022/11/22 10:38:52;;;;;;;12.97;1.90;;;;;;;;;;5020261;28;20356;-68
2022/11/22 10:41:42;;;;;;;8.53;1.87;;;;;;;;;;5017105;28;20179;-68
2022/11/22 10:44:37;;;;;;;10.00;1.90;;;;;;;;;;5008439;28;20187;-68
2022/11/22 10:47:19;;;;;;;10.13;1.63;;;;;;;;;;5013769;28;20182;-68
2022/11/22 10:49:56;;;;;;;5.90;1.90;;;;;;;;;;5018357;28;20630;-69
2022/11/22 10:52:31;;;;;;;11.15;2.03;;;;;;;;;;5026246;28;20237;-68
2022/11/22 10:55:23;;;;;;;8.95;1.80;;;;;;;;;;5022260;28;20177;-68
2022/11/22 10:58:09;;;;;;;15.80;2.73;;;;;;;;;;5010456;28;20198;-68
2022/11/22 11:00:39;;;;;;;7.38;1.30;;;;;;;;;;5014215;28;20546;-68
2022/11/22 11:03:34;;;;;;;7.97;1.20;;;;;;;;;;5007782;28;20187;-68
2022/11/22 11:06:27;;;;;;;9.40;1.58;;;;;;;;;;5008336;28;20244;-68
2022/11/22 11:09:05;;;;;;;6.27;1.47;;;;;;;;;;5007550;28;20491;-68
2022/11/22 11:11:30;;;;;;;10.90;1.70;;;;;;;;;;5008574;28;20508;-68
2022/11/22 11:14:03;;;;;;;9.45;2.13;;;;;;;;;;5021755;28;20445;-68
2022/11/22 11:16:33;;;;;;;13.50;1.83;;;;;;;;;;5015131;28;20175;-72
2022/11/22 11:19:16;;;;;;;10.73;1.75;;;;;;;;;;5011425;28;20202;-68
2022/11/22 11:21:42;;;;;;;8.27;1.90;;;;;;;;;;5017571;28;20187;-68
2022/11/22 11:24:15;;;;;;;7.63;1.97;;;;;;;;;;5022154;28;20247;-68
2022/11/22 11:26:49;;;;;;;9.82;1.85;;;;;;;;;;5022066;28;20204;-68
2022/11/22 11:29:15;;;;;;;9.65;2.42;;;;;;;;;;5020034;28;20201;-68
2022/11/22 11:31:45;;;;;;;8.05;1.50;;;;;;;;;;5022904;28;20209;-68
2022/11/22 11:34:23;;;;;;;8.43;1.85;;;;;;;;;;5027614;28;20182;-68
2022/11/22 11:36:51;;;;;;;8.07;1.50;;;;;;;;;;5027833;28;20230;-68
2022/11/22 11:39:21;;;;;;;9.27;1.70;;;;;;;;;;5018413;28;20509;-68
2022/11/22 11:41:46;;;;;;;8.35;1.45;;;;;;;;;;5022089;28;20181;-68
2022/11/22 11:44:36;;;;;;;3.50;1.10;;;;;;;;;;5023812;28;20278;-68
2022/11/22 11:47:03;;;;;;;10.25;1.55;;;;;;;;;;5017786;28;20701;-68
2022/11/22 11:49:33;;;;;;;8.20;1.45;;;;;;;;;;5028073;28;20266;-68
2022/11/22 11:52:02;;;;;;;11.77;1.33;;;;;;;;;;5020927;28;20744;-68
2022/11/22 11:54:39;;;;;;;8.35;1.60;;;;;;;;;;5018867;28;20463;-68
2022/11/22 11:57:09;;;;;;;5.57;1.10;;;;;;;;;;5024724;28;20187;-68
2022/11/22 11:59:37;;;;;;;9.07;1.80;;;;;;;;;;5029534;28;20818;-68
2022/11/22 12:02:20;;;;;;;6.13;1.10;;;;;;;;;;5025466;28;20190;-68
2022/11/22 12:04:52;;;;;;;8.23;1.40;;;;;;;;;;5021881;28;20185;-68
2022/11/22 12:07:21;;;;;;;6.78;1.20;;;;;;;;;;5023852;28;20178;-68
2022/11/22 12:09:48;;;;;;;5.32;1.45;;;;;;;;;;5018728;28;20677;-68
2022/11/22 12:12:25;;;;;;;6.40;0.93;;;;;;;;;;5023703;28;20237;-68
2022/11/22 12:15:00;;;;;;;8.13;1.23;;;;;;;;;;5028640;28;20186;-69
2022/11/22 12:17:30;;;;;;;8.20;1.50;;;;;;;;;;5027917;28;20184;-68
2022/11/22 12:20:04;;;;;;;3.42;1.05;;;;;;;;;;5012631;28;20197;-68
2022/11/22 12:22:47;;;;;;;4.75;1.20;;;;;;;;;;5012287;28;20177;-68
2022/11/22 12:25:33;;;;;;;3.53;1.00;;;;;;;;;;5018298;28;20599;-68
2022/11/22 12:28:17;;;;;;;4.10;0.95;;;;;;;;;;5027935;28;20178;-68
2022/11/22 12:30:43;;;;;;;2.90;0.63;;;;;;;;;;5019603;28;20279;-69
2022/11/22 12:33:18;;;;;;;5.88;0.88;;;;;;;;;;5020291;28;20221;-68
2022/11/22 12:35:45;;;;;;;5.25;1.20;;;;;;;;;;5019473;28;20238;-70
2022/11/22 12:38:17;;;;;;;4.47;0.80;;;;;;;;;;5021465;28;20237;-68
2022/11/22 12:40:47;;;;;;;2.80;0.70;;;;;;;;;;5025483;28;20191;-68
2022/11/22 12:43:21;;;;;;;2.78;0.80;;;;;;;;;;5011464;28;20221;-68
2022/11/22 12:45:51;;;;;;;1.17;0.60;;;;;;;;;;5023530;28;20178;-68
2022/11/22 12:48:32;;;;;;;3.67;0.82;;;;;;;;;;5010744;28;20576;-68
2022/11/22 12:51:26;;;;;;;4.13;0.90;;;;;;;;;;5021095;28;20280;-68
2022/11/22 12:53:56;;;;;;;4.43;0.90;;;;;;;;;;5017230;28;20705;-68
2022/11/22 12:56:27;;;;;;;6.15;0.65;;;;;;;;;;5024055;28;20194;-68
2022/11/22 12:59:00;;;;;;;3.45;0.80;;;;;;;;;;5025132;28;20186;-68
2022/11/22 13:01:36;;;;;;;3.27;0.60;;;;;;;;;;5028685;28;20189;-68
2022/11/22 13:04:10;;;;;;;4.13;0.82;;;;;;;;;;5013620;28;20182;-69
2022/11/22 13:07:00;;;;;;;3.13;0.60;;;;;;;;;;5025437;28;20190;-69
2022/11/22 13:09:32;;;;;;;4.03;0.70;;;;;;;;;;5016459;28;20182;-68
2022/11/22 13:12:04;;;;;;;1.20;0.50;;;;;;;;;;5026231;28;20296;-68
2022/11/22 13:14:34;;;;;;;2.90;0.50;;;;;;;;;;5026574;28;20185;-68
2022/11/22 13:17:05;;;;;;;5.63;0.87;;;;;;;;;;5028427;28;20222;-68
2022/11/22 13:19:36;;;;;;;3.77;1.00;;;;;;;;;;5008638;28;20623;-68
2022/11/22 13:22:34;;;;;;;4.10;1.27;;;;;;;;;;5017350;28;20190;-69
2022/11/22 13:25:41;;;;;;;4.37;0.97;;;;;;;;;;5026357;28;20182;-69
2022/11/22 13:28:15;;;;;;;4.23;1.20;;;;;;;;;;5027306;28;20584;-68
2022/11/22 13:31:09;;;;;;;4.40;1.93;;;;;;;;;;5029727;28;20190;-69
2022/11/22 13:33:36;;;;;;;5.10;1.37;;;;;;;;;;5015167;28;20218;-68
2022/11/22 13:36:34;;;;;;;5.03;1.13;;;;;;;;;;5017836;28;20238;-68
2022/11/22 13:39:05;;;;;;;4.57;1.60;;;;;;;;;;5015627;28;20195;-69
2022/11/22 13:41:33;;;;;;;7.93;1.40;;;;;;;;;;5010674;28;20178;-68
2022/11/22 13:44:17;;;;;;;5.57;1.20;;;;;;;;;;5010058;28;20597;-68
2022/11/22 13:46:48;;;;;;;7.40;1.70;;;;;;;;;;5016073;28;20218;-68
2022/11/22 13:49:32;;;;;;;6.83;1.63;;;;;;;;;;5029589;28;20269;-68
2022/11/22 13:51:59;;;;;;;9.00;1.90;;;;;;;;;;5028298;28;20206;-68
2022/11/22 13:54:30;;;;;;;11.07;2.30;;;;;;;;;;5027421;28;20186;-68
2022/11/22 13:57:00;;;;;;;9.63;2.03;;;;;;;;;;5018806;28;20498;-68
2022/11/22 13:59:25;;;;;;;5.90;1.63;;;;;;;;;;5021316;28;20205;-69
2022/11/22 14:01:51;;;;;;;9.73;1.63;;;;;;;;;;5013052;28;20182;-68
2022/11/22 14:04:18;;;;;;;7.00;1.60;;;;;;;;;;5010128;28;20198;-68
2022/11/22 14:07:20;;;;;;;5.57;1.60;;;;;;;;;;5017532;28;20213;-68
2022/11/22 14:09:51;;;;;;;5.57;1.47;;;;;;;;;;5020812;28;20798;-68
2022/11/22 14:13:05;;;;;;;8.50;1.63;;;;;;;;;;5016444;28;20213;-68
2022/11/22 14:16:11;;;;;;;3.93;1.30;;;;;;;;;;5017004;28;20228;-69
2022/11/22 14:19:02;;;;;;;6.43;1.50;;;;;;;;;;5026968;28;20606;-68
2022/11/22 14:21:43;;;;;;;5.90;1.43;;;;;;;;;;5009100;28;20186;-68
2022/11/22 14:24:22;;;;;;;7.03;2.20;;;;;;;;;;5013064;28;20209;-68
2022/11/22 14:27:22;;;;;;;8.50;1.90;;;;;;;;;;5015785;28;20209;-68
2022/11/22 14:30:21;;;;;;;7.03;2.00;;;;;;;;;;5017907;28;20183;-68
2022/11/22 14:33:00;;;;;;;9.00;2.17;;;;;;;;;;5027534;28;20584;-68
2022/11/22 14:35:34;;;;;;;11.27;1.90;;;;;;;;;;5013977;28;20190;-68
2022/11/22 14:38:05;;;;;;;8.20;2.00;;;;;;;;;;5014948;28;20210;-68
2022/11/22 14:40:39;;;;;;;13.80;2.07;;;;;;;;;;5016561;28;20187;-68
2022/11/22 14:43:10;;;;;;;7.00;2.00;;;;;;;;;;5012484;28;20590;-68
2022/11/22 14:45:54;;;;;;;8.88;2.40;;;;;;;;;;5008928;28;20183;-68
2022/11/22 14:48:22;;;;;;;9.75;2.35;;;;;;;;;;5025131;28;20205;-68
2022/11/22 14:50:57;;;;;;;7.00;1.83;;;;;;;;;;5014940;28;20182;-68
2022/11/22 14:53:35;;;;;;;9.17;2.40;;;;;;;;;;5014499;28;20194;-68
2022/11/22 14:56:07;;;;;;;12.17;2.53;;;;;;;;;;5017032;28;20186;-68
2022/11/22 14:58:37;;;;;;;7.07;2.50;;;;;;;;;;5014718;28;20182;-68